Time;durP1;ratioP1;P1;durP2;ratioP2;P2;SDS_P1;SDS_P2;PMS_P1;PMS_P2;Temp;Humidity;BMP_temperature;BMP_pressure;BME280_temperature;BME280_humidity;BME280_pressure;Samples;Min_cycle;Max_cycle;Signal;HPM_P1;HPM_P2
2021/11/10 00:00:14;;;;;;;16.73;12.80;;;5.50;1.00;;;;;;5054404;28;20990;-79
2021/11/10 00:02:41;;;;;;;15.38;13.88;;;5.40;1.00;;;;;;5050822;28;20216;-79
2021/11/10 00:05:09;;;;;;;14.50;11.88;;;5.40;1.00;;;;;;5054947;28;20240;-80
2021/11/10 00:07:36;;;;;;;19.80;14.02;;;5.30;1.00;;;;;;5050710;28;20231;-79
2021/11/10 00:10:04;;;;;;;15.68;13.88;;;5.30;1.00;;;;;;5057623;28;20217;-78
2021/11/10 00:12:30;;;;;;;15.98;13.38;;;5.20;1.00;;;;;;5057238;28;20217;-79
2021/11/10 00:14:59;;;;;;;17.83;14.57;;;5.20;1.00;;;;;;5062473;28;20290;-80
2021/11/10 00:17:26;;;;;;;17.88;14.77;;;5.20;1.00;;;;;;5055315;28;20236;-80
2021/11/10 00:19:52;;;;;;;17.20;12.98;;;5.20;1.00;;;;;;5055099;28;20298;-80
2021/11/10 00:22:19;;;;;;;24.73;13.23;;;5.10;1.00;;;;;;5044650;28;20228;-78
2021/11/10 00:24:46;;;;;;;18.75;13.57;;;5.10;1.00;;;;;;5048932;28;20233;-78
2021/11/10 00:27:12;;;;;;;22.02;15.30;;;5.10;1.00;;;;;;5052359;28;20229;-78
2021/11/10 00:29:39;;;;;;;16.70;13.60;;;5.10;1.00;;;;;;5051184;28;20229;-78
2021/11/10 00:32:08;;;;;;;18.38;13.52;;;5.00;1.00;;;;;;5054469;28;20224;-79
2021/11/10 00:34:35;;;;;;;18.83;15.60;;;5.00;1.00;;;;;;5047009;28;20221;-78
2021/11/10 00:37:02;;;;;;;16.80;14.25;;;5.00;1.00;;;;;;5053061;28;20228;-80
2021/11/10 00:39:28;;;;;;;17.98;14.88;;;5.00;1.00;;;;;;5053966;28;20295;-80
2021/11/10 00:41:55;;;;;;;15.90;12.85;;;4.90;1.00;;;;;;5054784;28;20777;-80
2021/11/10 00:44:22;;;;;;;15.73;14.00;;;5.00;1.00;;;;;;5052330;28;20240;-79
2021/11/10 00:46:48;;;;;;;14.98;13.38;;;5.00;1.00;;;;;;5052278;28;21021;-79
2021/11/10 00:49:16;;;;;;;17.60;14.15;;;5.00;1.00;;;;;;5047886;28;20278;-79
2021/11/10 00:51:43;;;;;;;18.48;14.98;;;5.00;1.00;;;;;;5046302;28;20224;-78
2021/11/10 00:54:10;;;;;;;19.70;14.07;;;5.00;1.00;;;;;;5049876;28;20221;-79
2021/11/10 00:56:37;;;;;;;15.57;13.25;;;5.10;1.00;;;;;;5050742;28;21069;-78
2021/11/10 00:59:04;;;;;;;16.92;12.27;;;5.10;1.00;;;;;;5054192;28;20222;-79
2021/11/10 01:01:31;;;;;;;18.90;14.00;;;5.10;1.00;;;;;;5052046;28;20240;-79
2021/11/10 01:03:57;;;;;;;17.23;14.40;;;5.10;1.00;;;;;;5054696;28;21116;-80
2021/11/10 01:06:25;;;;;;;17.35;13.02;;;5.00;1.00;;;;;;5043780;28;20232;-80
2021/11/10 01:08:53;;;;;;;17.13;13.52;;;5.10;1.00;;;;;;5053510;28;20228;-79
2021/11/10 01:11:19;;;;;;;16.13;13.18;;;5.00;1.00;;;;;;5050634;28;20225;-80
2021/11/10 01:13:46;;;;;;;17.48;14.27;;;5.00;1.00;;;;;;5055689;28;20927;-79
2021/11/10 01:16:13;;;;;;;18.65;14.38;;;4.90;1.00;;;;;;5043063;28;20240;-79
2021/11/10 01:18:39;;;;;;;20.40;13.98;;;4.90;1.00;;;;;;5052828;28;20234;-79
2021/11/10 01:21:06;;;;;;;16.70;13.82;;;4.90;1.00;;;;;;5048333;28;20227;-78
2021/11/10 01:23:34;;;;;;;14.75;13.10;;;4.90;1.00;;;;;;5047592;28;20221;-80
2021/11/10 01:26:01;;;;;;;17.60;14.70;;;4.90;1.00;;;;;;5049947;28;20327;-80
2021/11/10 01:28:27;;;;;;;14.93;12.38;;;4.90;1.00;;;;;;5064068;28;20776;-79
2021/11/10 01:30:54;;;;;;;16.48;13.90;;;4.80;1.00;;;;;;5054497;28;20240;-80
2021/11/10 01:33:20;;;;;;;16.08;13.57;;;4.90;1.00;;;;;;5048590;28;20272;-78
2021/11/10 01:35:47;;;;;;;15.10;13.27;;;4.80;1.00;;;;;;5052113;28;20226;-80
2021/11/10 01:38:14;;;;;;;15.95;13.88;;;4.70;1.00;;;;;;5044580;28;20226;-80
2021/11/10 01:40:42;;;;;;;17.63;13.20;;;4.70;1.00;;;;;;5036622;28;20229;-78
2021/11/10 01:43:14;;;;;;;14.40;12.98;;;4.70;1.00;;;;;;5051137;28;20225;-78
2021/11/10 01:45:41;;;;;;;14.70;12.48;;;4.60;1.00;;;;;;5052797;28;20295;-79
2021/11/10 01:48:08;;;;;;;16.52;13.43;;;4.60;1.00;;;;;;5048466;28;20233;-78
2021/11/10 01:50:35;;;;;;;17.67;14.68;;;4.50;1.00;;;;;;5054873;28;20229;-79
2021/11/10 01:53:01;;;;;;;16.30;13.20;;;4.40;1.00;;;;;;5053479;28;20227;-78
2021/11/10 01:55:28;;;;;;;16.58;12.60;;;4.40;1.00;;;;;;5063932;28;20225;-79
2021/11/10 01:57:57;;;;;;;16.67;13.60;;;4.40;1.00;;;;;;5059928;28;20248;-79
2021/11/10 02:00:26;;;;;;;17.85;14.07;;;4.30;1.00;;;;;;5053472;28;21485;-78
2021/11/10 02:02:54;;;;;;;16.95;12.93;;;4.20;1.00;;;;;;5058037;28;20993;-78
2021/11/10 02:05:21;;;;;;;17.77;13.95;;;4.20;1.00;;;;;;5051375;28;20228;-78
2021/11/10 02:07:49;;;;;;;20.15;15.13;;;4.20;1.00;;;;;;5064686;28;20213;-78
2021/11/10 02:10:19;;;;;;;15.07;12.48;;;4.10;1.00;;;;;;5055417;28;20235;-78
2021/11/10 02:12:46;;;;;;;18.17;14.32;;;4.10;1.00;;;;;;5050741;28;20233;-77
2021/11/10 02:15:20;;;;;;;18.75;13.95;;;4.10;1.00;;;;;;5053767;28;20221;-78
2021/11/10 02:17:48;;;;;;;14.88;13.20;;;4.10;1.00;;;;;;5050597;28;21241;-79
2021/11/10 02:20:15;;;;;;;15.93;13.70;;;4.00;1.00;;;;;;5045484;28;20221;-78
2021/11/10 02:22:44;;;;;;;15.48;13.30;;;3.90;1.00;;;;;;5053679;28;20236;-78
2021/11/10 02:25:12;;;;;;;19.73;15.68;;;3.90;1.00;;;;;;5054587;28;20679;-79
2021/11/10 02:27:40;;;;;;;17.08;14.25;;;3.80;1.00;;;;;;5051040;28;20700;-79
2021/11/10 02:30:10;;;;;;;16.60;14.63;;;3.80;1.00;;;;;;5048722;28;20290;-79
2021/11/10 02:32:37;;;;;;;15.27;13.55;;;3.90;1.00;;;;;;5056266;28;20308;-79
2021/11/10 02:35:06;;;;;;;16.40;14.27;;;3.90;1.00;;;;;;5054769;28;20228;-78
2021/11/10 02:37:34;;;;;;;15.10;13.00;;;3.90;1.00;;;;;;5050909;28;20217;-79
2021/11/10 02:40:03;;;;;;;16.55;14.15;;;3.80;1.00;;;;;;5068252;28;21285;-78
2021/11/10 02:42:30;;;;;;;16.80;13.80;;;3.90;1.00;;;;;;5057515;28;20224;-78
2021/11/10 02:44:56;;;;;;;15.18;13.25;;;3.90;1.00;;;;;;5055617;28;20250;-78
2021/11/10 02:47:23;;;;;;;17.55;14.57;;;3.90;1.00;;;;;;5057266;28;20700;-78
2021/11/10 02:49:50;;;;;;;16.75;13.65;;;3.90;1.00;;;;;;5054216;28;20276;-78
2021/11/10 02:52:19;;;;;;;19.35;14.70;;;3.90;1.00;;;;;;5052461;28;20228;-78
2021/11/10 02:54:48;;;;;;;14.60;13.05;;;3.80;1.00;;;;;;5090092;27;21475;-78
2021/11/10 02:57:16;;;;;;;17.15;14.35;;;3.80;1.00;;;;;;5067003;28;20228;-78
2021/11/10 02:59:43;;;;;;;18.80;14.82;;;3.80;1.00;;;;;;5074549;28;20229;-78
2021/11/10 03:02:09;;;;;;;16.80;14.07;;;3.80;1.00;;;;;;5054883;28;20224;-78
2021/11/10 03:04:41;;;;;;;20.17;14.05;;;3.80;1.00;;;;;;5052536;28;21011;-78
2021/11/10 03:07:08;;;;;;;16.60;13.20;;;3.80;1.00;;;;;;5055374;28;20228;-78
2021/11/10 03:09:36;;;;;;;17.88;13.63;;;3.80;1.00;;;;;;5053880;28;20217;-78
2021/11/10 03:12:04;;;;;;;18.92;13.80;;;3.80;1.00;;;;;;5047763;28;20222;-79
2021/11/10 03:14:35;;;;;;;15.07;12.68;;;3.80;1.00;;;;;;5055273;28;20723;-79
2021/11/10 03:17:05;;;;;;;19.27;14.20;;;3.80;1.00;;;;;;5053234;28;20232;-78
2021/11/10 03:19:32;;;;;;;18.70;14.82;;;3.80;1.00;;;;;;5053714;28;20220;-78
2021/11/10 03:21:59;;;;;;;16.90;14.75;;;3.80;1.00;;;;;;5052292;28;21045;-78
2021/11/10 03:24:26;;;;;;;15.85;13.07;;;3.80;1.00;;;;;;5053801;28;20236;-78
2021/11/10 03:26:53;;;;;;;20.00;13.85;;;3.80;1.00;;;;;;5054241;28;20224;-77
2021/11/10 03:29:20;;;;;;;15.95;13.38;;;3.80;1.00;;;;;;5054077;28;20213;-78
2021/11/10 03:31:48;;;;;;;18.20;14.13;;;3.80;1.00;;;;;;5055140;28;20217;-78
2021/11/10 03:34:15;;;;;;;17.92;13.68;;;3.80;1.00;;;;;;5059613;28;20247;-78
2021/11/10 03:36:42;;;;;;;16.23;14.38;;;3.80;1.00;;;;;;5058534;28;20224;-80
2021/11/10 03:39:13;;;;;;;16.13;12.98;;;3.80;1.00;;;;;;5063871;28;20239;-79
2021/11/10 03:41:41;;;;;;;19.35;14.00;;;3.80;1.00;;;;;;5058926;28;20229;-78
2021/11/10 03:44:09;;;;;;;19.58;13.88;;;3.80;1.00;;;;;;5054714;28;20244;-79
2021/11/10 03:46:37;;;;;;;16.40;13.70;;;3.80;1.00;;;;;;5056933;28;20344;-79
2021/11/10 03:49:05;;;;;;;16.88;14.65;;;3.80;1.00;;;;;;5057607;28;20221;-79
2021/11/10 03:51:32;;;;;;;18.67;14.38;;;3.80;1.00;;;;;;5056694;28;20232;-78
2021/11/10 03:53:58;;;;;;;17.02;15.15;;;3.80;1.00;;;;;;5049574;28;20232;-79
2021/11/10 03:56:25;;;;;;;17.65;14.70;;;3.70;1.00;;;;;;5057759;28;20216;-79
2021/11/10 03:58:52;;;;;;;17.08;13.70;;;3.70;1.00;;;;;;5056495;28;20220;-79
2021/11/10 04:01:18;;;;;;;20.60;15.50;;;3.70;1.00;;;;;;5057487;28;20233;-79
2021/11/10 04:03:45;;;;;;;17.55;15.43;;;3.60;1.00;;;;;;5059886;28;20742;-79
2021/11/10 04:06:13;;;;;;;17.05;14.90;;;3.60;1.00;;;;;;5058787;28;20235;-79
2021/11/10 04:08:40;;;;;;;17.50;15.50;;;3.60;1.00;;;;;;5060356;28;20224;-79
2021/11/10 04:11:07;;;;;;;21.48;15.52;;;3.50;1.00;;;;;;5054804;28;20225;-78
2021/11/10 04:13:34;;;;;;;21.80;15.23;;;3.60;1.00;;;;;;5058088;28;20221;-79
2021/11/10 04:16:02;;;;;;;15.75;13.80;;;3.60;1.00;;;;;;5061500;28;20229;-78
2021/11/10 04:18:33;;;;;;;17.75;15.23;;;3.60;1.00;;;;;;5055072;28;20299;-78
2021/11/10 04:21:00;;;;;;;20.63;17.00;;;3.50;1.00;;;;;;5056907;28;20221;-79
2021/11/10 04:23:28;;;;;;;17.60;15.07;;;3.50;1.00;;;;;;5069422;28;20286;-78
2021/11/10 04:25:55;;;;;;;18.70;15.77;;;3.40;1.00;;;;;;5064335;28;21217;-78
2021/11/10 04:28:22;;;;;;;23.42;20.30;;;3.40;1.00;;;;;;5063249;28;20227;-78
2021/11/10 04:30:49;;;;;;;19.92;14.85;;;3.40;1.00;;;;;;5065442;28;20268;-79
2021/11/10 04:33:16;;;;;;;19.13;14.63;;;3.40;1.00;;;;;;5055118;28;20217;-79
2021/11/10 04:35:42;;;;;;;18.65;15.57;;;3.40;1.00;;;;;;5056657;28;20230;-79
2021/11/10 04:38:09;;;;;;;18.83;15.48;;;3.30;1.00;;;;;;5057177;28;20219;-79
2021/11/10 04:40:37;;;;;;;18.73;14.48;;;3.30;1.00;;;;;;5066316;28;21146;-79
2021/11/10 04:43:04;;;;;;;21.58;14.98;;;3.30;1.00;;;;;;5066867;28;20323;-79
2021/11/10 04:45:32;;;;;;;18.65;16.58;;;3.30;1.00;;;;;;5056773;28;20282;-79
2021/11/10 04:47:59;;;;;;;21.15;15.20;;;3.30;1.00;;;;;;5054041;28;20281;-79
2021/11/10 04:50:26;;;;;;;18.42;14.60;;;3.20;1.00;;;;;;5067770;28;20570;-79
2021/11/10 04:52:53;;;;;;;18.98;15.98;;;3.20;1.00;;;;;;5052122;28;20352;-79
2021/11/10 04:55:20;;;;;;;19.45;15.38;;;3.20;1.00;;;;;;5053529;28;20346;-80
2021/11/10 04:57:48;;;;;;;15.85;14.15;;;3.20;1.00;;;;;;5056458;28;20244;-80
2021/11/10 05:00:15;;;;;;;21.90;16.35;;;3.20;1.00;;;;;;5049430;28;20229;-80
2021/11/10 05:02:42;;;;;;;18.52;15.15;;;3.20;1.00;;;;;;5053563;28;20221;-79
2021/11/10 05:05:10;;;;;;;17.42;15.40;;;3.20;1.00;;;;;;5056907;28;20228;-79
2021/11/10 05:07:36;;;;;;;22.02;16.48;;;3.20;1.00;;;;;;5055106;28;20231;-81
2021/11/10 05:10:04;;;;;;;19.80;16.38;;;3.20;1.00;;;;;;5059339;28;20239;-78
2021/11/10 05:12:31;;;;;;;20.05;16.50;;;3.20;1.00;;;;;;5065578;28;20224;-79
2021/11/10 05:14:59;;;;;;;21.52;16.67;;;3.20;1.00;;;;;;5053924;28;20220;-77
2021/11/10 05:17:27;;;;;;;25.65;17.90;;;3.20;1.00;;;;;;5051400;28;21243;-77
2021/11/10 05:19:54;;;;;;;18.52;15.50;;;3.20;1.00;;;;;;5049927;28;20236;-77
2021/11/10 05:22:21;;;;;;;19.38;16.98;;;3.20;1.00;;;;;;5049007;28;20225;-78
2021/11/10 05:24:48;;;;;;;21.30;16.42;;;3.20;1.00;;;;;;5051461;28;20232;-78
2021/11/10 05:27:15;;;;;;;20.80;16.83;;;3.20;1.00;;;;;;5059857;28;20229;-77
2021/11/10 05:29:41;;;;;;;21.45;16.67;;;3.20;1.00;;;;;;5054634;28;21126;-77
2021/11/10 05:32:10;;;;;;;21.58;16.52;;;3.20;1.00;;;;;;5051561;28;20245;-77
2021/11/10 05:34:38;;;;;;;23.77;16.55;;;3.20;1.00;;;;;;5050193;28;20248;-77
2021/11/10 05:37:05;;;;;;;22.30;16.50;;;3.30;1.00;;;;;;5051514;28;20225;-77
2021/11/10 05:39:32;;;;;;;23.50;16.27;;;3.30;1.00;;;;;;5055049;28;20288;-77
2021/11/10 05:41:59;;;;;;;22.92;16.45;;;3.30;1.00;;;;;;5057195;28;20228;-77
2021/11/10 05:44:26;;;;;;;23.02;18.08;;;3.30;1.00;;;;;;5053407;28;20968;-78
2021/11/10 05:46:52;;;;;;;22.15;16.40;;;3.30;1.00;;;;;;5053185;28;20234;-78
2021/11/10 05:49:20;;;;;;;19.67;16.20;;;3.30;1.00;;;;;;5055769;28;20236;-78
2021/11/10 05:51:47;;;;;;;19.33;16.92;;;3.40;1.00;;;;;;5054040;28;20676;-77
2021/11/10 05:54:14;;;;;;;35.75;23.77;;;3.40;1.00;;;;;;5056168;28;21353;-78
2021/11/10 05:56:42;;;;;;;23.60;19.02;;;3.30;1.00;;;;;;5053595;28;20248;-78
2021/11/10 05:59:09;;;;;;;23.05;17.88;;;3.40;1.00;;;;;;5054772;28;21510;-78
2021/11/10 06:01:37;;;;;;;23.40;18.02;;;3.30;1.00;;;;;;5052811;28;20636;-79
2021/11/10 06:04:04;;;;;;;23.20;16.75;;;3.30;1.00;;;;;;5052891;28;20223;-77
2021/11/10 06:06:32;;;;;;;23.90;16.30;;;3.30;1.00;;;;;;5058417;28;20248;-79
2021/11/10 06:08:59;;;;;;;40.20;26.25;;;3.30;1.00;;;;;;5060333;28;20251;-78
2021/11/10 06:11:26;;;;;;;25.17;18.27;;;3.20;1.00;;;;;;5055338;28;20217;-77
2021/11/10 06:13:53;;;;;;;22.70;17.98;;;3.20;1.00;;;;;;5052043;28;20232;-78
2021/11/10 06:16:19;;;;;;;23.17;16.85;;;3.20;1.00;;;;;;5051776;28;20992;-78
2021/11/10 06:18:46;;;;;;;23.15;16.83;;;3.10;1.00;;;;;;5051936;28;20279;-78
2021/11/10 06:21:13;;;;;;;22.63;17.80;;;3.00;1.00;;;;;;5055522;28;20230;-77
2021/11/10 06:23:44;;;;;;;19.35;16.13;;;3.00;1.00;;;;;;5053764;28;20589;-77
2021/11/10 06:26:11;;;;;;;25.58;17.67;;;2.90;1.00;;;;;;5069324;28;20229;-79
2021/11/10 06:28:38;;;;;;;20.50;17.08;;;2.90;1.00;;;;;;5051950;28;20376;-77
2021/11/10 06:31:05;;;;;;;23.38;15.60;;;2.90;1.00;;;;;;5046648;28;20228;-78
2021/11/10 06:33:32;;;;;;;23.98;18.15;;;3.00;1.00;;;;;;5058628;28;20320;-77
2021/11/10 06:35:59;;;;;;;349.65;261.55;;;3.00;1.00;;;;;;5053029;28;20236;-77
2021/11/10 06:38:26;;;;;;;18.83;15.68;;;3.00;1.00;;;;;;5048036;28;20249;-77
2021/11/10 06:40:54;;;;;;;21.58;16.70;;;3.00;1.00;;;;;;5049029;28;20233;-76
2021/11/10 06:43:21;;;;;;;20.23;17.20;;;3.00;1.00;;;;;;5052236;28;20222;-77
2021/11/10 06:45:47;;;;;;;24.52;17.50;;;3.00;1.00;;;;;;5051137;28;20289;-76
2021/11/10 06:48:14;;;;;;;25.58;18.50;;;3.10;1.00;;;;;;5057105;28;20220;-77
2021/11/10 06:50:41;;;;;;;26.00;16.88;;;3.10;1.00;;;;;;5053935;28;20224;-76
2021/11/10 06:53:09;;;;;;;21.40;17.27;;;3.20;1.00;;;;;;5044287;28;20229;-77
2021/11/10 06:55:36;;;;;;;23.95;17.33;;;3.20;1.00;;;;;;5052712;28;20228;-76
2021/11/10 06:58:04;;;;;;;21.83;17.02;;;3.30;1.00;;;;;;5052495;28;20226;-76
2021/11/10 07:00:32;;;;;;;30.30;23.98;;;3.30;1.00;;;;;;5050927;28;20268;-76
2021/11/10 07:02:59;;;;;;;20.60;16.70;;;3.40;1.00;;;;;;5057427;28;20217;-76
2021/11/10 07:05:28;;;;;;;24.13;16.55;;;3.40;1.00;;;;;;5049627;28;20231;-77
2021/11/10 07:07:55;;;;;;;23.00;18.27;;;3.40;1.00;;;;;;5050403;28;20251;-77
2021/11/10 07:10:21;;;;;;;23.35;18.27;;;3.40;1.00;;;;;;5050573;28;20298;-76
2021/11/10 07:12:48;;;;;;;21.08;16.88;;;3.40;1.00;;;;;;5052814;28;20233;-77
2021/11/10 07:15:16;;;;;;;20.15;16.10;;;3.50;1.00;;;;;;5050926;28;20756;-77
2021/11/10 07:17:43;;;;;;;27.70;17.08;;;3.50;1.00;;;;;;5052514;28;20221;-76
2021/11/10 07:20:10;;;;;;;25.00;19.67;;;3.50;1.00;;;;;;5052143;28;20232;-77
2021/11/10 07:22:37;;;;;;;26.02;18.20;;;3.60;1.00;;;;;;5051710;28;21583;-76
2021/11/10 07:25:04;;;;;;;23.13;17.23;;;3.60;1.00;;;;;;5049310;28;20218;-77
2021/11/10 07:27:33;;;;;;;21.67;16.90;;;3.70;1.00;;;;;;5053213;28;21100;-77
2021/11/10 07:30:00;;;;;;;27.25;17.10;;;3.80;1.00;;;;;;5048520;28;20279;-77
2021/11/10 07:32:28;;;;;;;20.73;16.02;;;3.80;1.00;;;;;;5050146;28;20220;-77
2021/11/10 07:34:55;;;;;;;24.58;16.65;;;3.90;1.00;;;;;;5051943;28;22109;-77
2021/11/10 07:37:21;;;;;;;25.42;18.67;;;4.00;1.00;;;;;;5047874;28;20343;-77
2021/11/10 07:39:48;;;;;;;22.38;18.85;;;4.00;1.00;;;;;;5050007;28;20223;-76
2021/11/10 07:42:15;;;;;;;24.65;18.20;;;4.10;1.00;;;;;;5050243;28;20244;-76
2021/11/10 07:44:42;;;;;;;25.70;17.65;;;4.20;1.00;;;;;;5048695;28;20221;-77
2021/11/10 07:47:12;;;;;;;25.17;19.20;;;4.30;1.00;;;;;;5049197;28;20255;-77
2021/11/10 07:49:42;;;;;;;23.23;18.85;;;4.30;1.00;;;;;;5051708;28;20941;-77
2021/11/10 07:52:09;;;;;;;32.63;19.83;;;4.40;1.00;;;;;;5055202;28;21054;-77
2021/11/10 07:54:35;;;;;;;26.20;18.35;;;4.50;1.00;;;;;;5049708;28;20224;-77
2021/11/10 07:57:02;;;;;;;23.42;18.80;;;4.60;1.00;;;;;;5062307;28;20285;-76
2021/11/10 07:59:29;;;;;;;25.55;18.83;;;4.70;1.00;;;;;;5056819;28;20799;-77
2021/11/10 08:01:56;;;;;;;24.23;18.02;;;4.80;1.00;;;;;;5053359;28;20231;-77
2021/11/10 08:04:22;;;;;;;20.75;18.35;;;4.90;1.00;;;;;;5063272;28;20725;-77
2021/11/10 08:06:50;;;;;;;20.48;18.08;;;5.00;1.00;;;;;;5055323;28;20228;-79
2021/11/10 08:09:17;;;;;;;22.98;17.88;;;5.20;1.00;;;;;;5056656;28;20229;-77
2021/11/10 08:11:44;;;;;;;25.50;17.23;;;5.20;1.00;;;;;;5054705;28;20592;-76
2021/11/10 08:14:10;;;;;;;23.23;17.45;;;5.30;1.00;;;;;;5049894;28;20217;-76
2021/11/10 08:16:37;;;;;;;32.28;19.48;;;5.40;1.00;;;;;;5055020;28;20231;-77
2021/11/10 08:19:04;;;;;;;29.50;18.27;;;5.50;1.00;;;;;;5060298;28;20861;-78
2021/11/10 08:21:30;;;;;;;25.35;17.20;;;5.60;1.00;;;;;;5058675;28;20305;-78
2021/11/10 08:24:01;;;;;;;22.15;17.63;;;5.60;1.00;;;;;;5060473;28;20229;-77
2021/11/10 08:26:27;;;;;;;20.90;17.27;;;5.70;1.00;;;;;;5050913;28;20342;-76
2021/11/10 08:28:54;;;;;;;25.65;18.02;;;5.80;1.00;;;;;;5053259;28;20763;-75
2021/11/10 08:31:21;;;;;;;22.73;17.85;;;5.80;1.00;;;;;;5052074;28;21331;-77
2021/11/10 08:33:47;;;;;;;22.50;17.55;;;5.90;1.00;;;;;;5049140;28;20225;-76
2021/11/10 08:36:14;;;;;;;21.23;16.98;;;6.10;1.00;;;;;;5046747;28;20774;-77
2021/11/10 08:38:41;;;;;;;26.80;20.38;;;6.20;1.00;;;;;;5050120;28;21427;-77
2021/11/10 08:41:09;;;;;;;20.25;17.92;;;6.30;1.00;;;;;;5050107;28;20225;-79
2021/11/10 08:43:36;;;;;;;21.70;18.15;;;6.40;1.00;;;;;;5057729;28;20836;-76
2021/11/10 08:46:03;;;;;;;21.85;17.25;;;6.50;1.00;;;;;;5051960;28;20704;-77
2021/11/10 08:48:30;;;;;;;25.35;18.65;;;6.50;1.00;;;;;;5047367;28;20427;-77
2021/11/10 08:50:57;;;;;;;22.35;16.60;;;6.50;1.00;;;;;;5047602;28;20213;-77
2021/11/10 08:53:25;;;;;;;20.23;16.75;;;6.60;1.00;;;;;;5051083;28;20233;-78
2021/11/10 08:55:54;;;;;;;19.17;17.13;;;6.70;1.00;;;;;;5047110;28;20224;-78
2021/11/10 08:58:23;;;;;;;20.27;16.85;;;6.80;1.00;;;;;;5054325;28;20229;-78
2021/11/10 09:00:52;;;;;;;20.63;17.52;;;6.90;1.00;;;;;;5053761;28;20733;-78
2021/11/10 09:03:21;;;;;;;20.95;16.95;;;7.00;1.00;;;;;;5075797;27;20275;-78
2021/11/10 09:05:48;;;;;;;23.73;16.10;;;7.00;1.00;;;;;;5048642;28;21171;-77
2021/11/10 09:08:15;;;;;;;18.85;16.08;;;7.10;1.00;;;;;;5054065;28;20707;-77
2021/11/10 09:10:42;;;;;;;31.30;24.83;;;7.20;1.00;;;;;;5060769;28;20224;-77
2021/11/10 09:13:09;;;;;;;19.88;17.38;;;7.40;1.00;;;;;;5054054;28;20216;-80
2021/11/10 09:15:37;;;;;;;20.48;17.23;;;7.60;1.00;;;;;;5048865;28;20300;-76
2021/11/10 09:18:06;;;;;;;20.48;17.23;;;8.00;1.00;;;;;;5047467;28;20296;-78
2021/11/10 09:20:36;;;;;;;19.88;17.17;;;8.20;1.00;;;;;;5055591;28;20232;-77
2021/11/10 09:23:05;;;;;;;21.73;17.15;;;8.40;1.00;;;;;;5050586;28;20230;-78
2021/11/10 09:25:33;;;;;;;20.48;16.23;;;8.70;1.00;;;;;;5058382;28;20231;-77
2021/11/10 09:28:03;;;;;;;19.45;15.02;;;9.20;1.00;;;;;;5052081;28;20323;-79
2021/11/10 09:30:31;;;;;;;28.08;23.30;;;9.40;1.00;;;;;;5049796;28;20230;-78
2021/11/10 09:33:00;;;;;;;19.70;16.15;;;9.40;1.00;;;;;;5050548;28;20332;-78
2021/11/10 09:35:28;;;;;;;18.90;16.30;;;9.70;1.00;;;;;;5049844;28;20276;-77
2021/11/10 09:37:56;;;;;;;16.77;15.07;;;10.00;1.00;;;;;;5049200;28;20466;-77
2021/11/10 09:40:26;;;;;;;21.88;15.57;;;10.10;1.00;;;;;;5052904;28;20463;-77
2021/11/10 09:42:53;;;;;;;18.95;14.70;;;9.90;1.00;;;;;;5056194;28;20221;-78
2021/11/10 09:45:23;;;;;;;20.63;15.23;;;9.90;1.00;;;;;;5050086;28;20279;-78
2021/11/10 09:47:50;;;;;;;18.63;15.20;;;10.10;1.00;;;;;;5046985;28;20452;-76
2021/11/10 09:50:20;;;;;;;21.07;16.90;;;10.30;1.00;;;;;;5049409;28;20458;-78
2021/11/10 09:52:47;;;;;;;19.83;14.60;;;10.60;1.00;;;;;;5046773;28;21214;-78
2021/11/10 09:55:17;;;;;;;18.63;15.20;;;10.70;1.00;;;;;;5049944;28;20514;-77
2021/11/10 09:57:44;;;;;;;16.30;14.50;;;10.80;1.00;;;;;;5047863;28;20466;-77
2021/11/10 10:00:14;;;;;;;18.60;14.70;;;10.60;1.00;;;;;;5043860;28;21751;-77
2021/11/10 10:02:40;;;;;;;16.60;14.90;;;10.50;1.00;;;;;;5050563;28;22302;-77
2021/11/10 10:05:08;;;;;;;18.50;14.77;;;10.30;1.00;;;;;;5050622;28;20539;-78
2021/11/10 10:07:36;;;;;;;14.60;13.07;;;10.50;1.00;;;;;;5050495;28;20463;-78
2021/11/10 10:10:04;;;;;;;15.97;14.13;;;10.70;1.00;;;;;;5057023;28;20465;-78
2021/11/10 10:12:31;;;;;;;17.03;14.40;;;11.00;1.00;;;;;;5055080;28;20435;-78
2021/11/10 10:14:57;;;;;;;16.83;13.83;;;11.40;1.00;;;;;;5050706;28;20461;-78
2021/11/10 10:17:36;;;;;;;16.43;14.20;;;11.80;1.00;;;;;;5055640;28;20516;-79
2021/11/10 10:20:05;;;;;;;14.97;13.37;;;12.00;1.00;;;;;;5049029;28;20513;-80
2021/11/10 10:22:32;;;;;;;18.03;15.10;;;12.10;1.00;;;;;;5050042;28;20530;-79
2021/11/10 10:25:02;;;;;;;15.57;13.50;;;12.30;1.00;;;;;;5050431;28;20472;-79
2021/11/10 10:27:31;;;;;;;17.33;14.37;;;12.40;1.00;;;;;;5050891;28;21781;-79
2021/11/10 10:30:31;;;;;;;15.97;13.73;;;12.60;1.00;;;;;;5051795;28;20452;-78
2021/11/10 10:32:59;;;;;;;15.13;13.60;;;12.80;1.00;;;;;;5049769;28;20441;-78
2021/11/10 10:35:28;;;;;;;16.70;15.03;;;13.00;1.00;;;;;;5049537;28;20453;-78
2021/11/10 10:37:55;;;;;;;17.77;13.90;;;13.10;1.00;;;;;;5053071;28;20412;-79
2021/11/10 10:40:23;;;;;;;17.97;16.07;;;13.30;1.00;;;;;;5049959;28;20552;-79
2021/11/10 10:42:49;;;;;;;17.57;14.10;;;13.30;1.00;;;;;;5046079;28;20440;-79
2021/11/10 10:45:27;;;;;;;16.00;14.30;;;13.20;1.00;;;;;;5047699;28;20463;-78
2021/11/10 10:47:56;;;;;;;15.67;13.83;;;13.10;1.00;;;;;;5048086;28;20455;-79
2021/11/10 10:50:31;;;;;;;18.27;15.40;;;13.50;1.00;;;;;;5050423;28;20456;-78
2021/11/10 10:52:57;;;;;;;16.73;14.00;;;14.20;1.00;;;;;;5050648;28;20429;-78
2021/11/10 10:55:37;;;;;;;13.97;12.57;;;14.50;1.00;;;;;;5044242;28;20440;-82
2021/11/10 10:58:06;;;;;;;14.43;12.27;;;15.60;1.00;;;;;;5037253;28;21585;-77
2021/11/10 11:00:35;;;;;;;14.73;13.27;;;16.70;1.00;;;;;;5047167;28;21533;-77
2021/11/10 11:03:32;;;;;;;16.50;13.40;;;16.90;1.00;;;;;;5059858;28;20509;-77
2021/11/10 11:05:59;;;;;;;14.40;12.97;;;16.90;1.00;;;;;;5054450;28;20444;-77
2021/11/10 11:08:36;;;;;;;14.83;13.20;;;16.80;1.00;;;;;;5062456;28;21477;-77
2021/11/10 11:11:21;;;;;;;14.17;12.77;;;16.60;1.00;;;;;;5052390;28;20455;-77
2021/11/10 11:13:51;;;;;;;16.10;12.20;;;16.20;1.00;;;;;;5047391;28;20422;-77
2021/11/10 11:16:20;;;;;;;15.50;13.20;;;16.00;1.00;;;;;;5051897;28;20466;-76
2021/11/10 11:18:47;;;;;;;14.67;12.77;;;16.10;1.00;;;;;;5049464;28;20453;-76
2021/11/10 11:21:23;;;;;;;14.73;13.17;;;15.90;1.00;;;;;;5054837;28;20462;-76
2021/11/10 11:23:49;;;;;;;14.73;13.20;;;15.90;1.00;;;;;;5056099;28;20551;-76
2021/11/10 11:26:38;;;;;;;13.80;12.50;;;15.80;1.00;;;;;;5047246;28;20534;-76
2021/11/10 11:29:24;;;;;;;14.00;12.60;;;15.30;1.00;;;;;;5047712;28;21392;-77
2021/11/10 11:31:52;;;;;;;14.67;12.80;;;15.60;1.00;;;;;;5051354;28;20474;-77
2021/11/10 11:34:19;;;;;;;14.47;12.97;;;16.00;1.00;;;;;;5047300;28;20490;-76
2021/11/10 11:36:48;;;;;;;16.03;13.23;;;16.00;1.00;;;;;;5048057;28;20448;-81
2021/11/10 11:39:15;;;;;;;15.40;13.00;;;15.90;1.00;;;;;;5051282;28;20492;-76
2021/11/10 11:41:43;;;;;;;14.63;12.90;;;15.80;1.00;;;;;;5057263;28;20456;-77
2021/11/10 11:44:09;;;;;;;14.87;13.23;;;15.80;1.00;;;;;;5057418;28;20428;-76
2021/11/10 11:46:38;;;;;;;14.87;13.37;;;15.90;1.00;;;;;;5051737;28;21559;-77
2021/11/10 11:49:05;;;;;;;14.50;12.93;;;16.20;1.00;;;;;;5047862;28;20481;-76
2021/11/10 11:51:32;;;;;;;16.20;13.40;;;16.40;1.00;;;;;;5043649;28;20457;-76
2021/11/10 11:54:01;;;;;;;14.97;12.67;;;16.40;1.00;;;;;;5051279;28;20455;-77
2021/11/10 11:56:29;;;;;;;13.97;12.57;;;16.80;1.00;;;;;;5045287;28;20475;-76
2021/11/10 11:59:00;;;;;;;14.90;13.40;;;16.70;1.00;;;;;;5050551;28;20533;-77
2021/11/10 12:01:30;;;;;;;15.27;13.67;;;16.90;1.00;;;;;;5056164;28;20461;-79
2021/11/10 12:03:58;;;;;;;15.50;13.23;;;17.10;1.00;;;;;;5046594;28;20540;-78
2021/11/10 12:06:25;;;;;;;14.80;13.40;;;17.30;1.00;;;;;;5050253;28;20469;-77
2021/11/10 12:08:53;;;;;;;15.23;13.63;;;17.60;1.00;;;;;;5055527;28;20415;-78
2021/11/10 12:11:33;;;;;;;16.23;13.13;;;18.10;1.00;;;;;;5053658;28;20455;-79
2021/11/10 12:14:12;;;;;;;17.20;15.40;;;18.90;1.00;;;;;;5052831;28;20485;-78
2021/11/10 12:16:47;;;;;;;13.50;12.10;;;18.70;1.00;;;;;;5048870;28;20465;-79
2021/11/10 12:19:20;;;;;;;13.57;12.23;;;19.10;1.00;;;;;;5049787;28;20439;-78
2021/11/10 12:21:49;;;;;;;13.63;12.20;;;20.00;1.00;;;;;;5049762;28;20597;-78
2021/11/10 12:24:19;;;;;;;13.60;12.30;;;20.80;1.00;;;;;;5053997;28;20463;-78
2021/11/10 12:27:07;;;;;;;13.27;12.00;;;21.40;1.00;;;;;;5052336;28;20464;-78
2021/11/10 12:29:50;;;;;;;15.87;14.30;;;20.50;1.00;;;;;;5051671;28;20471;-78
2021/11/10 12:32:17;;;;;;;12.77;11.57;;;19.40;1.00;;;;;;5046024;28;20526;-79
2021/11/10 12:34:48;;;;;;;12.80;11.47;;;18.30;1.00;;;;;;5045054;28;20431;-76
2021/11/10 12:37:26;;;;;;;13.77;12.40;;;17.10;1.00;;;;;;5049218;28;20441;-77
2021/11/10 12:40:12;;;;;;;15.97;14.27;;;16.50;1.00;;;;;;5048548;28;20473;-78
2021/11/10 12:42:48;;;;;;;12.83;11.47;;;16.30;1.00;;;;;;5048446;28;20456;-79
2021/11/10 12:45:19;;;;;;;13.07;11.67;;;16.30;1.00;;;;;;5046094;28;21356;-77
2021/11/10 12:47:48;;;;;;;13.07;11.83;;;16.70;1.00;;;;;;5049191;28;20455;-78
2021/11/10 12:50:20;;;;;;;14.30;12.80;;;16.80;1.00;;;;;;5042675;28;20461;-79